createdAt,value
2023-04-08T00:00:10.509Z,64.00
2023-04-08T00:02:37.441Z,65.25
2023-04-08T00:05:04.432Z,65.42
2023-04-08T00:07:31.314Z,66.25
2023-04-08T00:09:58.031Z,66.29
2023-04-08T00:12:24.747Z,66.82
2023-04-08T00:14:51.422Z,67.12
2023-04-08T00:17:18.105Z,66.03
2023-04-08T00:19:45.128Z,66.01
2023-04-08T00:22:11.910Z,66.34
2023-04-08T00:24:38.611Z,66.17
2023-04-08T00:27:05.466Z,65.29
2023-04-08T00:29:32.368Z,66.80
2023-04-08T00:31:59.068Z,65.81
2023-04-08T00:34:25.659Z,67.03
2023-04-08T00:36:52.386Z,66.34
2023-04-08T00:39:19.083Z,66.04
2023-04-08T00:41:45.855Z,65.93
2023-04-08T00:44:12.539Z,64.36
2023-04-08T00:46:40.319Z,63.98
2023-04-08T00:49:07.773Z,65.58
2023-04-08T00:51:36.606Z,65.87
2023-04-08T00:54:07.355Z,65.40
2023-04-08T00:56:34.820Z,64.52
2023-04-08T00:59:01.916Z,64.47
2023-04-08T01:01:39.645Z,64.99
2023-04-08T01:04:40.587Z,64.84
2023-04-08T01:07:17.444Z,64.88
2023-04-08T01:09:52.578Z,65.07
2023-04-08T01:12:27.259Z,65.26
2023-04-08T01:15:01.742Z,64.77
2023-04-08T01:17:30.546Z,65.52
2023-04-08T01:19:59.629Z,66.25
2023-04-08T01:23:07.351Z,65.79
2023-04-08T01:25:38.810Z,65.72
2023-04-08T01:28:15.786Z,65.46
2023-04-08T01:30:44.971Z,67.06
2023-04-08T01:33:13.535Z,65.96
2023-04-08T01:35:41.010Z,65.42
2023-04-08T01:38:09.972Z,66.34
2023-04-08T01:40:39.377Z,66.32
2023-04-08T01:43:07.872Z,66.55
2023-04-08T01:45:34.558Z,66.00
2023-04-08T01:48:01.826Z,65.58
2023-04-08T01:50:29.761Z,65.42
2023-04-08T01:52:59.196Z,65.23
2023-04-08T01:55:26.479Z,66.80
2023-04-08T01:57:54.382Z,67.05
2023-04-08T02:00:26.055Z,65.88
2023-04-08T02:02:53.887Z,65.39
2023-04-08T02:05:21.065Z,65.18
2023-04-08T02:07:48.839Z,66.78
2023-04-08T02:10:16.298Z,71.17
2023-04-08T02:12:44.414Z,75.17
2023-04-08T02:15:12.412Z,75.49
2023-04-08T02:17:45.854Z,75.64
2023-04-08T02:20:24.483Z,75.69
2023-04-08T02:23:04.713Z,76.14
2023-04-08T02:25:37.691Z,75.28
2023-04-08T02:28:06.980Z,75.90
2023-04-08T02:30:37.352Z,76.81
2023-04-08T02:33:06.095Z,76.25
2023-04-08T02:35:33.757Z,75.65
2023-04-08T02:38:00.642Z,75.03
2023-04-08T02:40:29.299Z,76.52
2023-04-08T02:42:56.474Z,75.30
2023-04-08T02:45:25.800Z,75.97
2023-04-08T02:47:52.604Z,75.78
2023-04-08T02:50:19.317Z,75.23
2023-04-08T02:52:45.967Z,75.94
2023-04-08T02:55:12.648Z,75.71
2023-04-08T02:57:41.239Z,75.28
2023-04-08T03:00:09.303Z,75.24
2023-04-08T03:02:36.554Z,74.83
2023-04-08T03:05:04.422Z,75.04
2023-04-08T03:07:31.683Z,74.80
2023-04-08T03:09:58.626Z,75.12
2023-04-08T03:12:27.537Z,74.34
2023-04-08T03:14:54.719Z,75.21
2023-04-08T03:17:21.668Z,75.43
2023-04-08T03:19:48.449Z,75.87
2023-04-08T03:22:15.556Z,76.23
2023-04-08T03:24:42.288Z,75.52
2023-04-08T03:27:09.013Z,77.32
2023-04-08T03:29:35.606Z,77.92
2023-04-08T03:32:02.511Z,79.21
2023-04-08T03:34:29.198Z,78.47
2023-04-08T03:36:55.815Z,79.79
2023-04-08T03:39:22.616Z,78.79
2023-04-08T03:41:49.259Z,78.94
2023-04-08T03:44:15.945Z,81.31
2023-04-08T03:46:42.582Z,81.60
2023-04-08T03:49:09.352Z,81.04
2023-04-08T03:51:35.982Z,81.19
2023-04-08T03:54:02.682Z,81.29
2023-04-08T03:56:29.371Z,82.00
2023-04-08T03:58:56.024Z,81.97
2023-04-08T04:01:22.729Z,82.50
2023-04-08T04:03:49.475Z,82.93
2023-04-08T04:06:16.360Z,81.75
2023-04-08T04:08:42.957Z,82.04
2023-04-08T04:11:09.611Z,82.93
2023-04-08T04:13:36.319Z,83.87
2023-04-08T04:16:02.979Z,84.95
2023-04-08T04:18:29.678Z,85.02
2023-04-08T04:20:56.482Z,83.59
2023-04-08T04:23:24.461Z,82.63
2023-04-08T04:25:51.231Z,81.72
2023-04-08T04:28:17.905Z,81.37
2023-04-08T04:30:45.740Z,81.39
2023-04-08T04:33:12.430Z,81.18
2023-04-08T04:35:40.055Z,80.79
2023-04-08T04:38:12.680Z,80.62
2023-04-08T04:40:39.693Z,80.76
2023-04-08T04:43:06.498Z,80.20
2023-04-08T04:45:33.251Z,80.59
2023-04-08T04:47:59.921Z,81.78
2023-04-08T04:50:27.444Z,81.30
2023-04-08T04:52:54.069Z,81.13
2023-04-08T04:55:22.419Z,80.61
2023-04-08T04:57:49.754Z,79.45
2023-04-08T05:00:17.163Z,79.72
2023-04-08T05:02:44.176Z,79.92
2023-04-08T05:05:11.137Z,79.32
2023-04-08T05:07:38.703Z,79.66
2023-04-08T05:10:06.165Z,80.83
2023-04-08T05:12:33.200Z,80.55
2023-04-08T05:14:59.776Z,81.89
2023-04-08T05:17:26.758Z,79.85
2023-04-08T05:19:53.703Z,82.21
2023-04-08T05:22:20.394Z,80.91
2023-04-08T05:24:47.080Z,79.87
2023-04-08T05:27:13.714Z,79.35
2023-04-08T05:29:40.338Z,79.77
2023-04-08T05:32:07.307Z,79.94
2023-04-08T05:34:33.975Z,79.62
2023-04-08T05:37:00.907Z,78.69
2023-04-08T05:39:27.646Z,79.11
2023-04-08T05:41:54.289Z,78.79
2023-04-08T05:44:21.099Z,78.68
2023-04-08T05:46:47.736Z,79.16
2023-04-08T05:49:14.505Z,80.33
2023-04-08T05:51:41.253Z,80.01
2023-04-08T05:54:07.890Z,80.34
2023-04-08T05:56:35.056Z,80.12
2023-04-08T05:59:01.700Z,80.38
2023-04-08T06:01:28.279Z,80.08
2023-04-08T06:03:56.586Z,79.84
2023-04-08T06:06:24.200Z,79.13
2023-04-08T06:08:51.075Z,78.71
2023-04-08T06:11:17.948Z,79.28
2023-04-08T06:13:44.567Z,79.12
2023-04-08T06:16:21.331Z,78.64
2023-04-08T06:18:49.189Z,79.44
2023-04-08T06:21:16.047Z,79.35
2023-04-08T06:23:42.721Z,79.27
2023-04-08T06:26:09.362Z,79.29
2023-04-08T06:28:36.278Z,78.16
2023-04-08T06:31:03.033Z,77.95
2023-04-08T06:33:29.713Z,77.36
2023-04-08T06:36:07.343Z,78.17
2023-04-08T06:38:34.765Z,77.95
2023-04-08T06:41:07.972Z,77.30
2023-04-08T06:43:36.567Z,77.18
2023-04-08T06:46:03.892Z,76.71
2023-04-08T06:48:31.009Z,76.88
2023-04-08T06:50:58.547Z,76.10
2023-04-08T06:53:25.730Z,76.31
2023-04-08T06:55:52.709Z,75.82
2023-04-08T06:58:19.314Z,75.00
2023-04-08T07:00:46.180Z,75.04
2023-04-08T07:03:13.170Z,75.18
2023-04-08T07:05:40.015Z,75.38
2023-04-08T07:08:06.710Z,74.04
2023-04-08T07:10:34.993Z,73.56
2023-04-08T07:13:02.090Z,73.83
2023-04-08T07:15:28.718Z,73.40
2023-04-08T07:17:58.854Z,73.63
2023-04-08T07:20:26.219Z,73.78
2023-04-08T07:22:52.889Z,74.14
2023-04-08T07:25:19.761Z,74.53
2023-04-08T07:27:46.619Z,74.40
2023-04-08T07:30:13.499Z,74.89
2023-04-08T07:32:40.254Z,74.54
2023-04-08T07:35:07.251Z,74.57
2023-04-08T07:37:33.955Z,74.75
2023-04-08T07:40:00.891Z,75.62
2023-04-08T07:42:27.510Z,76.59
2023-04-08T07:44:54.202Z,77.00
2023-04-08T07:47:21.253Z,76.91
2023-04-08T07:49:48.487Z,77.55
2023-04-08T07:52:15.805Z,79.36
2023-04-08T07:54:42.496Z,78.95
2023-04-08T07:57:09.208Z,80.18
2023-04-08T07:59:36.227Z,81.50
2023-04-08T08:02:03.541Z,81.81
2023-04-08T08:04:30.518Z,81.43
2023-04-08T08:06:57.247Z,82.02
2023-04-08T08:09:23.941Z,82.94
2023-04-08T08:11:50.486Z,82.49
2023-04-08T08:14:17.077Z,83.19
2023-04-08T08:16:44.615Z,82.80
2023-04-08T08:19:12.463Z,82.72
2023-04-08T08:21:42.318Z,82.95
2023-04-08T08:24:09.431Z,82.61
2023-04-08T08:26:39.424Z,82.10
2023-04-08T08:29:08.897Z,81.59
2023-04-08T08:31:35.815Z,81.17
2023-04-08T08:34:02.935Z,81.67
2023-04-08T08:36:29.577Z,80.85
2023-04-08T08:38:56.500Z,81.43
2023-04-08T08:41:23.246Z,81.85
2023-04-08T08:43:50.187Z,81.86
2023-04-08T08:46:19.374Z,81.94
2023-04-08T08:48:46.550Z,82.54
2023-04-08T08:51:14.801Z,81.13
2023-04-08T08:53:45.684Z,81.22
2023-04-08T08:58:42.064Z,81.61
2023-04-08T09:01:30.546Z,82.93
2023-04-08T09:04:11.165Z,83.09
2023-04-08T09:06:38.543Z,82.88
2023-04-08T09:09:11.236Z,83.17
2023-04-08T09:11:40.875Z,83.45
2023-04-08T09:14:22.846Z,82.36
2023-04-08T09:16:50.113Z,82.21
2023-04-08T09:19:17.018Z,82.76
2023-04-08T09:21:44.157Z,83.34
2023-04-08T09:24:29.055Z,83.51
2023-04-08T09:26:56.622Z,82.98
2023-04-08T09:29:31.261Z,83.65
2023-04-08T09:42:53.708Z,85.43
2023-04-08T09:45:20.862Z,85.66
2023-04-08T09:48:04.557Z,84.66
2023-04-08T09:50:39.474Z,84.89
2023-04-08T09:53:15.683Z,85.24
2023-04-08T09:55:45.289Z,86.05
2023-04-08T09:58:19.200Z,86.48
2023-04-08T10:00:50.767Z,85.67
2023-04-08T10:03:29.484Z,85.08
2023-04-08T10:05:58.637Z,85.50
2023-04-08T10:08:27.148Z,85.85
2023-04-08T10:10:55.217Z,85.57
2023-04-08T10:13:22.834Z,85.22
2023-04-08T10:15:49.550Z,84.93
2023-04-08T10:18:19.138Z,85.33
2023-04-08T10:20:47.496Z,86.09
2023-04-08T10:23:16.198Z,86.57
2023-04-08T10:25:47.929Z,86.38
2023-04-08T10:28:15.277Z,86.58
2023-04-08T10:30:51.473Z,85.70
2023-04-08T10:33:21.585Z,85.31
2023-04-08T10:36:11.746Z,85.14
2023-04-08T10:38:39.612Z,85.03
2023-04-08T10:41:06.378Z,84.86
2023-04-08T10:43:37.208Z,84.24
2023-04-08T10:46:04.985Z,84.38
2023-04-08T10:48:31.945Z,83.96
2023-04-08T10:51:00.217Z,83.75
2023-04-08T10:53:37.759Z,83.79
2023-04-08T10:56:13.269Z,84.22
2023-04-08T10:58:57.697Z,83.87
2023-04-08T11:01:24.440Z,83.24
2023-04-08T11:03:51.808Z,83.46
2023-04-08T11:06:19.566Z,83.49
2023-04-08T11:08:47.289Z,83.30
2023-04-08T11:11:15.472Z,83.31
2023-04-08T11:13:52.816Z,83.25
2023-04-08T11:16:22.542Z,83.75
2023-04-08T11:18:50.640Z,83.90
2023-04-08T11:21:17.379Z,83.55
2023-04-08T11:23:44.149Z,83.80
2023-04-08T11:26:11.633Z,83.54
2023-04-08T11:28:38.835Z,83.43
2023-04-08T11:31:06.321Z,83.79
2023-04-08T11:33:33.467Z,83.70
2023-04-08T11:36:02.202Z,83.37
2023-04-08T11:38:29.412Z,83.53
2023-04-08T11:40:59.934Z,82.39
2023-04-08T11:43:27.185Z,82.17
2023-04-08T11:45:53.773Z,81.67
2023-04-08T11:48:20.673Z,81.01
2023-04-08T11:50:47.352Z,81.18
2023-04-08T11:53:21.709Z,81.00
2023-04-08T11:55:49.119Z,81.39
2023-04-08T11:58:15.926Z,81.11
2023-04-08T12:00:43.732Z,80.75
2023-04-08T12:03:11.307Z,81.09
2023-04-08T12:05:38.058Z,80.54
2023-04-08T12:08:04.825Z,80.83
2023-04-08T12:10:31.445Z,80.82
2023-04-08T12:12:58.055Z,80.44
2023-04-08T12:15:24.678Z,80.62
2023-04-08T12:17:51.441Z,80.60
2023-04-08T12:20:18.655Z,81.30
2023-04-08T12:22:45.575Z,81.16
2023-04-08T12:25:12.292Z,81.85
2023-04-08T12:27:38.946Z,82.42
2023-04-08T12:30:06.016Z,82.23
2023-04-08T12:32:33.678Z,82.59
2023-04-08T12:35:00.480Z,82.78
2023-04-08T12:37:27.706Z,83.50
2023-04-08T12:39:54.287Z,84.23
2023-04-08T12:42:20.937Z,84.48
2023-04-08T12:44:47.511Z,84.57
2023-04-08T12:47:14.129Z,84.56
2023-04-08T12:52:10.378Z,86.38
2023-04-08T12:54:37.037Z,86.97
2023-04-08T12:57:04.637Z,87.46
2023-04-08T12:59:32.238Z,87.28
2023-04-08T13:01:59.237Z,87.72
2023-04-08T13:04:25.950Z,87.81
2023-04-08T13:06:52.793Z,87.96
2023-04-08T13:09:19.378Z,88.75
2023-04-08T13:11:45.985Z,88.63
2023-04-08T13:14:13.751Z,89.32
2023-04-08T13:16:40.551Z,89.94
2023-04-08T13:19:07.259Z,90.26
2023-04-08T13:21:33.832Z,90.45
2023-04-08T13:24:00.528Z,91.05
2023-04-08T13:26:27.442Z,91.58
2023-04-08T13:28:57.790Z,92.21
2023-04-08T13:31:25.464Z,92.79
2023-04-08T13:33:53.885Z,92.72
2023-04-08T13:36:21.959Z,92.55
2023-04-08T13:38:48.755Z,91.51
2023-04-08T13:41:15.557Z,90.54
2023-04-08T13:43:42.373Z,88.89
2023-04-08T13:46:09.356Z,87.15
2023-04-08T13:48:36.078Z,85.98
2023-04-08T13:51:03.544Z,85.80
2023-04-08T13:53:30.278Z,85.74
2023-04-08T13:55:59.038Z,84.84
2023-04-08T13:58:26.622Z,83.05
2023-04-08T14:00:53.536Z,83.04
2023-04-08T14:03:20.244Z,82.56
2023-04-08T14:05:48.279Z,82.52
2023-04-08T14:08:14.864Z,81.77
2023-04-08T14:10:42.275Z,80.45
2023-04-08T14:13:09.201Z,80.98
2023-04-08T14:15:36.237Z,80.09
2023-04-08T14:18:02.993Z,79.60
2023-04-08T14:20:30.299Z,79.42
2023-04-08T14:22:57.030Z,79.11
2023-04-08T14:25:24.378Z,78.85
2023-04-08T14:27:58.465Z,78.14
2023-04-08T14:30:27.202Z,76.53
2023-04-08T14:32:54.605Z,76.05
2023-04-08T14:35:21.672Z,74.59
2023-04-08T14:37:48.467Z,73.59
2023-04-08T14:40:15.072Z,73.55
2023-04-08T14:42:42.010Z,73.18
2023-04-08T14:45:09.149Z,72.35
2023-04-08T14:47:36.009Z,72.96
2023-04-08T14:50:02.747Z,72.06
2023-04-08T14:52:29.362Z,70.31
2023-04-08T14:54:56.018Z,69.97
2023-04-08T14:57:22.622Z,71.53
2023-04-08T14:59:49.225Z,71.08
2023-04-08T15:02:15.992Z,70.86
2023-04-08T15:04:42.722Z,70.18
2023-04-08T15:07:09.347Z,70.34
2023-04-08T15:09:36.174Z,69.65
2023-04-08T15:12:03.140Z,69.83
2023-04-08T15:14:29.821Z,69.79
2023-04-08T15:16:56.414Z,71.01
2023-04-08T15:19:23.745Z,70.37
2023-04-08T15:21:50.357Z,70.19
2023-04-08T15:24:17.083Z,70.38
2023-04-08T15:26:43.733Z,69.99
2023-04-08T15:29:10.385Z,69.80
2023-04-08T15:31:37.340Z,70.13
2023-04-08T15:34:04.028Z,70.24
2023-04-08T15:36:30.978Z,70.56
2023-04-08T15:38:57.686Z,71.52
2023-04-08T15:41:24.383Z,70.56
2023-04-08T15:43:53.210Z,71.25
2023-04-08T15:46:23.505Z,71.54
2023-04-08T15:48:50.725Z,71.80
2023-04-08T15:51:18.037Z,72.07
2023-04-08T15:53:44.771Z,71.75
2023-04-08T15:56:16.320Z,72.21
2023-04-08T15:58:43.730Z,72.10
2023-04-08T16:01:10.577Z,71.96
2023-04-08T16:03:37.400Z,72.25
2023-04-08T16:06:06.106Z,71.95
2023-04-08T16:08:34.854Z,72.06
2023-04-08T16:11:03.217Z,72.09
2023-04-08T16:13:30.183Z,72.10
2023-04-08T16:16:05.926Z,72.25
2023-04-08T16:18:32.613Z,72.59
2023-04-08T16:20:59.364Z,72.35
2023-04-08T16:23:26.190Z,72.30
2023-04-08T16:25:52.815Z,72.99
2023-04-08T16:28:19.637Z,73.20
2023-04-08T16:30:47.889Z,73.06
2023-04-08T16:33:14.620Z,73.12
2023-04-08T16:35:41.250Z,73.34
2023-04-08T16:38:07.905Z,73.35
2023-04-08T16:40:34.830Z,73.64
2023-04-08T16:43:02.394Z,73.83
2023-04-08T16:45:30.320Z,73.90
2023-04-08T16:47:57.789Z,74.78
2023-04-08T16:50:24.725Z,74.38
2023-04-08T16:52:51.731Z,74.74
2023-04-08T16:55:19.497Z,75.04
2023-04-08T16:57:46.367Z,74.98
2023-04-08T17:00:13.521Z,75.20
2023-04-08T17:02:40.433Z,74.68
2023-04-08T17:05:07.764Z,74.73
2023-04-08T17:07:34.615Z,74.51
2023-04-08T17:10:01.235Z,74.29
2023-04-08T17:12:27.820Z,74.44
2023-04-08T17:14:54.519Z,74.61
2023-04-08T17:17:21.220Z,74.43
2023-04-08T17:19:48.047Z,74.32
2023-04-08T17:22:14.655Z,74.23
2023-04-08T17:24:41.326Z,74.66
2023-04-08T17:27:07.939Z,74.38
2023-04-08T17:29:34.547Z,74.88
2023-04-08T17:32:01.461Z,74.13
2023-04-08T17:34:29.231Z,75.08
2023-04-08T17:36:56.902Z,74.74
2023-04-08T17:39:23.527Z,74.78
2023-04-08T17:41:50.114Z,74.55
2023-04-08T17:44:17.173Z,74.76
2023-04-08T17:46:43.797Z,75.24
2023-04-08T17:49:14.259Z,75.17
2023-04-08T17:51:41.034Z,75.09
2023-04-08T17:54:07.724Z,75.32
2023-04-08T17:56:34.347Z,74.93
2023-04-08T17:59:01.904Z,75.08
2023-04-08T18:01:28.642Z,75.10
2023-04-08T18:03:56.212Z,75.10
2023-04-08T18:06:23.024Z,75.00
2023-04-08T18:08:50.008Z,75.63
2023-04-08T18:11:16.635Z,75.03
2023-04-08T18:13:43.294Z,75.41
2023-04-08T18:16:17.426Z,75.19
2023-04-08T18:18:44.730Z,75.41
2023-04-08T18:21:11.333Z,75.60
2023-04-08T18:23:38.104Z,75.32
2023-04-08T18:26:04.724Z,75.58
2023-04-08T18:28:31.609Z,76.56
2023-04-08T18:30:58.353Z,76.81
2023-04-08T18:33:25.279Z,76.80
2023-04-08T18:35:52.706Z,76.95
2023-04-08T18:38:19.581Z,77.64
2023-04-08T18:40:46.894Z,77.44
2023-04-08T18:43:13.848Z,77.56
2023-04-08T18:45:41.338Z,77.94
2023-04-08T18:48:08.486Z,78.42
2023-04-08T18:50:35.326Z,78.67
2023-04-08T18:55:30.358Z,78.38
2023-04-08T18:57:57.242Z,78.60
2023-04-08T19:00:24.076Z,78.79
2023-04-08T19:02:51.056Z,79.32
2023-04-08T19:05:17.961Z,79.20
2023-04-08T19:07:44.566Z,79.45
2023-04-08T19:10:11.323Z,79.33
2023-04-08T19:12:37.892Z,79.50
2023-04-08T19:15:04.935Z,79.85
2023-04-08T19:17:31.595Z,79.44
2023-04-08T19:19:58.840Z,79.48
2023-04-08T19:22:25.456Z,80.11
2023-04-08T19:24:54.384Z,80.31
2023-04-08T19:27:21.722Z,79.91
2023-04-08T19:29:48.349Z,79.48
2023-04-08T19:32:15.411Z,79.95
2023-04-08T19:34:42.522Z,79.23
2023-04-08T19:37:09.354Z,79.32
2023-04-08T19:39:36.021Z,79.09
2023-04-08T19:42:02.652Z,78.86
2023-04-08T19:44:29.927Z,78.96
2023-04-08T19:46:57.814Z,79.16
2023-04-08T19:49:24.931Z,79.43
2023-04-08T19:51:51.925Z,79.25
2023-04-08T19:54:18.540Z,79.51
2023-04-08T19:56:45.664Z,79.34
2023-04-08T19:59:12.432Z,79.61
2023-04-08T20:01:40.056Z,79.41
2023-04-08T20:04:07.142Z,79.13
2023-04-08T20:06:34.835Z,79.17
2023-04-08T20:09:05.684Z,79.09
2023-04-08T20:11:33.825Z,78.66
2023-04-08T20:14:00.686Z,78.52
2023-04-08T20:16:27.995Z,78.81
2023-04-08T20:18:54.676Z,79.32
2023-04-08T20:21:21.714Z,79.66
2023-04-08T20:23:48.319Z,79.79
2023-04-08T20:26:15.706Z,79.45
2023-04-08T20:28:43.612Z,79.15
2023-04-08T20:31:10.599Z,79.49
2023-04-08T20:33:43.758Z,79.40
2023-04-08T20:36:12.484Z,79.25
2023-04-08T20:38:40.570Z,79.27
2023-04-08T20:41:07.219Z,78.99
2023-04-08T20:43:33.991Z,79.35
2023-04-08T20:46:01.144Z,79.35
2023-04-08T20:48:29.411Z,78.54
2023-04-08T20:50:56.339Z,79.06
2023-04-08T20:53:23.762Z,79.10
2023-04-08T20:55:50.444Z,78.90
2023-04-08T20:58:18.293Z,79.42
2023-04-08T21:00:47.508Z,79.24
2023-04-08T21:03:14.609Z,79.66
2023-04-08T21:05:41.942Z,79.19
2023-04-08T21:08:08.985Z,80.02
2023-04-08T21:10:35.862Z,80.50
2023-04-08T21:13:02.488Z,80.85
2023-04-08T21:15:29.299Z,80.48
2023-04-08T21:17:56.153Z,81.89
2023-04-08T21:20:23.104Z,82.26
2023-04-08T21:22:49.726Z,81.38
2023-04-08T21:25:18.037Z,81.68
2023-04-08T21:27:44.767Z,81.68
2023-04-08T21:30:11.889Z,81.53
2023-04-08T21:32:38.879Z,81.28
2023-04-08T21:35:05.761Z,81.64
2023-04-08T21:37:32.448Z,81.69
2023-04-08T21:39:59.052Z,82.04
2023-04-08T21:42:26.381Z,82.25
2023-04-08T21:44:53.181Z,82.06
2023-04-08T21:47:19.812Z,81.53
2023-04-08T21:49:46.498Z,81.75
2023-04-08T21:52:13.093Z,81.76
2023-04-08T21:54:39.681Z,82.57
2023-04-08T21:57:06.381Z,81.82
2023-04-08T21:59:32.976Z,82.38
2023-04-08T22:01:59.864Z,82.41
2023-04-08T22:04:27.670Z,82.63
2023-04-08T22:06:54.670Z,82.16
2023-04-08T22:09:21.729Z,82.24
2023-04-08T22:11:48.354Z,81.86
2023-04-08T22:14:15.682Z,82.27
2023-04-08T22:16:43.109Z,81.95
2023-04-08T22:19:09.896Z,81.58
2023-04-08T22:21:36.734Z,82.17
2023-04-08T22:24:03.578Z,82.51
2023-04-08T22:26:30.563Z,81.91
2023-04-08T22:28:57.213Z,82.10
2023-04-08T22:31:24.013Z,81.71
2023-04-08T22:33:50.757Z,81.89
2023-04-08T22:36:17.386Z,82.20
2023-04-08T22:38:44.035Z,82.98
2023-04-08T22:41:21.002Z,82.45
2023-04-08T22:43:48.272Z,82.30
2023-04-08T22:46:15.172Z,82.87
2023-04-08T22:48:41.957Z,82.88
2023-04-08T22:51:09.439Z,82.49
2023-04-08T22:53:36.864Z,82.60
2023-04-08T22:56:04.365Z,82.88
2023-04-08T22:58:31.202Z,82.72
2023-04-08T23:00:58.364Z,82.71
2023-04-08T23:03:25.042Z,82.68
2023-04-08T23:05:52.023Z,82.70
2023-04-08T23:08:18.697Z,82.64
2023-04-08T23:10:45.391Z,82.64
2023-04-08T23:13:14.063Z,82.39
2023-04-08T23:15:40.865Z,82.85
2023-04-08T23:18:07.541Z,82.91
2023-04-08T23:20:35.531Z,82.51
2023-04-08T23:23:03.441Z,82.82
2023-04-08T23:25:30.301Z,82.71
2023-04-08T23:27:56.912Z,82.49
2023-04-08T23:30:23.508Z,82.58
2023-04-08T23:32:50.394Z,82.68
2023-04-08T23:35:17.358Z,82.46
2023-04-08T23:37:43.963Z,82.55
2023-04-08T23:40:11.145Z,82.26
2023-04-08T23:42:37.824Z,82.16
2023-04-08T23:45:05.656Z,82.56
2023-04-08T23:47:32.318Z,82.83
2023-04-08T23:49:58.963Z,82.62
2023-04-08T23:52:26.009Z,82.69
2023-04-08T23:54:52.660Z,82.76
2023-04-08T23:57:22.326Z,82.61
2023-04-08T23:59:48.927Z,83.37
